createdAt,value
2018-02-21T15:14:39.401Z,956.8
2018-02-21T15:15:39.381Z,956.75
2018-02-21T15:16:39.364Z,956.77
2018-02-21T15:17:39.346Z,956.78
2018-02-21T15:18:39.325Z,956.76
2018-02-21T15:19:39.306Z,956.76
2018-02-21T15:20:39.286Z,956.81
2018-02-21T15:21:39.268Z,956.78
2018-02-21T15:22:39.246Z,956.8
2018-02-21T15:23:39.232Z,956.81
2018-02-21T15:24:39.209Z,956.79
2018-02-21T15:25:39.191Z,956.83
2018-02-21T15:26:39.171Z,956.82
2018-02-21T15:27:39.153Z,956.79
2018-02-21T15:28:39.133Z,956.83
2018-02-21T15:29:39.115Z,956.79
2018-02-21T15:30:39.094Z,956.88
2018-02-21T15:31:39.120Z,956.82
2018-02-21T15:32:39.055Z,956.85
2018-02-21T15:33:39.037Z,956.83
2018-02-21T15:34:39.018Z,956.82
2018-02-21T15:35:38.997Z,956.86
2018-02-21T15:36:38.980Z,956.86
2018-02-21T15:37:38.960Z,956.84
2018-02-21T15:38:38.985Z,956.85
2018-02-21T15:39:38.922Z,956.91
2018-02-21T15:40:38.901Z,956.89
2018-02-21T15:41:38.885Z,956.96
2018-02-21T15:42:38.864Z,956.96
2018-02-21T15:43:38.844Z,956.97
2018-02-21T15:44:38.825Z,956.9
2018-02-21T15:45:38.806Z,957.02
2018-02-21T15:46:38.785Z,956.93
2018-02-21T15:47:38.767Z,956.95
2018-02-21T15:48:38.748Z,956.95
2018-02-21T15:49:38.729Z,956.91
2018-02-21T15:50:38.708Z,957
2018-02-21T15:51:38.688Z,956.98
2018-02-21T15:52:38.669Z,956.96
2018-02-21T15:53:38.649Z,956.99
2018-02-21T15:54:38.629Z,957.01
2018-02-21T15:55:38.610Z,957.04
2018-02-21T15:56:38.591Z,957.07
2018-02-21T15:57:38.570Z,957.05
2018-02-21T15:58:38.551Z,957.11
2018-02-21T15:59:38.531Z,957.08
2018-02-21T16:00:38.510Z,957.14
2018-02-21T16:01:38.491Z,957.12
2018-02-21T16:02:38.470Z,957.2
2018-02-21T16:03:38.453Z,957.19
2018-02-21T16:04:38.435Z,957.19
2018-02-21T16:05:38.413Z,957.2
2018-02-21T16:06:38.396Z,957.21
2018-02-21T16:07:38.390Z,957.18
2018-02-21T16:08:38.354Z,957.17
2018-02-21T16:09:38.336Z,957.18
2018-02-21T16:10:38.315Z,957.21
2018-02-21T16:11:38.298Z,957.21
2018-02-21T16:12:38.275Z,957.24
2018-02-21T16:13:38.257Z,957.16
2018-02-21T16:14:38.244Z,957.17
2018-02-21T16:15:38.218Z,957.2
2018-02-21T16:16:38.200Z,957.16
2018-02-21T16:17:38.180Z,957.18
2018-02-21T16:18:38.161Z,957.22
2018-02-21T16:19:38.141Z,957.25
2018-02-21T16:20:38.120Z,957.22
2018-02-21T16:21:38.101Z,957.22
2018-02-21T16:22:38.083Z,957.25
2018-02-21T16:23:38.061Z,957.23
2018-02-21T16:24:38.041Z,957.22
2018-02-21T16:25:38.022Z,957.26
2018-02-21T16:26:38.001Z,957.2
2018-02-21T16:27:37.981Z,957.21
2018-02-21T16:28:37.962Z,957.24
2018-02-21T16:29:37.942Z,957.21
2018-02-21T16:30:37.924Z,957.24
2018-02-21T16:31:37.903Z,957.14
2018-02-21T16:32:37.882Z,957.15
2018-02-21T16:33:37.864Z,957.19
2018-02-21T16:34:37.843Z,957.16
2018-02-21T16:35:37.828Z,957.17
2018-02-21T16:36:37.807Z,957.23
2018-02-21T16:37:37.784Z,957.14
2018-02-21T16:38:37.763Z,957.18
2018-02-21T16:39:37.743Z,957.22
2018-02-21T16:40:37.723Z,957.24
2018-02-21T16:41:37.701Z,957.22
2018-02-21T16:42:37.682Z,957.23
2018-02-21T16:43:37.663Z,957.22
2018-02-21T16:44:37.644Z,957.28
2018-02-21T16:45:37.623Z,957.26
2018-02-21T16:46:37.603Z,957.26
2018-02-21T16:47:37.582Z,957.25
2018-02-21T16:48:37.563Z,957.24
2018-02-21T16:49:37.546Z,957.28
2018-02-21T16:50:37.523Z,957.25
2018-02-21T16:51:37.504Z,957.3
2018-02-21T16:52:37.485Z,957.35
2018-02-21T16:53:37.468Z,957.35
2018-02-21T16:54:37.446Z,957.37
2018-02-21T16:55:37.428Z,957.35
2018-02-21T16:56:37.404Z,957.37
2018-02-21T16:57:37.383Z,957.39
2018-02-21T16:58:37.365Z,957.4
2018-02-21T16:59:37.352Z,957.45
2018-02-21T17:00:37.326Z,957.35
2018-02-21T17:01:37.305Z,957.43
2018-02-21T17:02:37.287Z,957.44
2018-02-21T17:03:37.265Z,957.39
2018-02-21T17:04:37.245Z,957.39
2018-02-21T17:05:37.225Z,957.42
2018-02-21T17:06:37.205Z,957.37
2018-02-21T17:07:37.184Z,957.38
2018-02-21T17:08:37.166Z,957.35
2018-02-21T17:09:37.145Z,957.36
2018-02-21T17:10:37.128Z,957.34
2018-02-21T17:11:37.106Z,957.37
2018-02-21T17:12:37.086Z,957.37
2018-02-21T17:13:37.066Z,957.39
2018-02-21T17:14:37.046Z,957.43
2018-02-21T17:15:37.025Z,957.44
2018-02-21T17:16:37.006Z,957.39
2018-02-21T17:17:36.988Z,957.39
2018-02-21T17:18:36.967Z,957.43
2018-02-21T17:19:36.949Z,957.43
2018-02-21T17:20:36.926Z,957.45
2018-02-21T17:21:36.906Z,957.46
2018-02-21T17:22:36.888Z,957.47
2018-02-21T17:23:36.867Z,957.45
2018-02-21T17:24:36.849Z,957.47
2018-02-21T17:25:36.827Z,957.49
2018-02-21T17:26:36.807Z,957.49
2018-02-21T17:27:36.787Z,957.53
2018-02-21T17:28:36.768Z,957.53
2018-02-21T17:29:36.746Z,957.54
2018-02-21T17:30:36.730Z,957.48
2018-02-21T17:31:36.732Z,957.51
2018-02-21T17:32:36.747Z,957.54
2018-02-21T17:33:36.667Z,957.58
2018-02-21T17:34:36.648Z,957.56
2018-02-21T17:35:36.629Z,957.57
2018-02-21T17:36:36.611Z,957.58
2018-02-21T17:37:36.589Z,957.58
2018-02-21T17:38:36.568Z,957.6
2018-02-21T17:39:36.549Z,957.61
2018-02-21T17:40:36.527Z,957.65
2018-02-21T17:41:36.510Z,957.66
2018-02-21T17:42:36.493Z,957.65
2018-02-21T17:43:36.469Z,957.61
2018-02-21T17:44:36.451Z,957.61
2018-02-21T17:45:36.429Z,957.65
2018-02-21T17:46:36.410Z,957.63
2018-02-21T17:47:36.389Z,957.73
2018-02-21T17:48:36.370Z,957.65
2018-02-21T17:49:36.351Z,957.67
2018-02-21T17:50:36.330Z,957.65
2018-02-21T17:51:36.310Z,957.68
2018-02-21T17:52:36.290Z,957.67
2018-02-21T17:53:36.270Z,957.65
2018-02-21T17:54:36.249Z,957.65
2018-02-21T17:55:36.231Z,957.62
2018-02-21T17:56:36.212Z,957.65
2018-02-21T17:57:36.191Z,957.63
2018-02-21T17:58:36.172Z,957.69
2018-02-21T17:59:36.150Z,957.66
2018-02-21T18:00:36.132Z,957.72
2018-02-21T18:01:36.113Z,957.75
2018-02-21T18:02:36.094Z,957.69
2018-02-21T18:03:36.071Z,957.74
2018-02-21T18:04:36.053Z,957.77
2018-02-21T18:05:36.031Z,957.75
2018-02-21T18:06:36.013Z,957.73
2018-02-21T18:07:35.992Z,957.73
2018-02-21T18:08:35.973Z,957.74
2018-02-21T18:09:35.955Z,957.75
2018-02-21T18:10:35.932Z,957.69
2018-02-21T18:11:35.912Z,957.7
2018-02-21T18:12:35.892Z,957.65
2018-02-21T18:13:35.873Z,957.68
2018-02-21T18:14:35.858Z,957.69
2018-02-21T18:15:35.833Z,957.72
2018-02-21T18:16:35.811Z,957.7
2018-02-21T18:17:35.793Z,957.69
2018-02-21T18:18:35.772Z,957.71
2018-02-21T18:19:35.752Z,957.76
2018-02-21T18:20:35.732Z,957.75
2018-02-21T18:21:35.961Z,957.76
2018-02-21T18:22:35.693Z,957.72
2018-02-21T18:23:35.673Z,957.8
2018-02-21T18:24:35.653Z,957.71
2018-02-21T18:25:35.633Z,957.77
2018-02-21T18:26:35.615Z,957.76
2018-02-21T18:27:35.592Z,957.77
2018-02-21T18:28:35.570Z,957.75
2018-02-21T18:29:35.551Z,957.79
2018-02-21T18:30:35.531Z,957.8
2018-02-21T18:31:35.510Z,957.81
2018-02-21T18:32:35.490Z,957.81
2018-02-21T18:33:35.470Z,957.81
2018-02-21T18:34:35.451Z,957.79
2018-02-21T18:35:35.428Z,957.78
2018-02-21T18:36:35.410Z,957.79
2018-02-21T18:37:35.390Z,957.77
2018-02-21T18:38:35.369Z,957.8
2018-02-21T18:39:35.348Z,957.8
2018-02-21T18:40:35.328Z,957.78
2018-02-21T18:41:35.309Z,957.81
2018-02-21T18:42:35.287Z,957.78
2018-02-21T18:43:35.266Z,957.82
2018-02-21T18:44:35.246Z,957.81
2018-02-21T18:45:35.226Z,957.87
2018-02-21T18:46:35.209Z,957.84
2018-02-21T18:47:35.185Z,957.85
2018-02-21T18:48:35.165Z,957.86
2018-02-21T18:49:35.144Z,957.92
2018-02-21T18:50:35.123Z,957.92
2018-02-21T18:51:35.102Z,957.91
2018-02-21T18:52:35.085Z,957.96
2018-02-21T18:53:35.060Z,957.89
2018-02-21T18:54:35.041Z,957.94
2018-02-21T18:55:35.021Z,957.95
2018-02-21T18:56:34.999Z,957.92
2018-02-21T18:57:34.978Z,957.96
2018-02-21T18:58:34.961Z,957.93
2018-02-21T18:59:34.938Z,957.96
2018-02-21T19:00:34.916Z,957.99
2018-02-21T19:01:34.896Z,957.95
2018-02-21T19:02:34.876Z,957.98
2018-02-21T19:03:34.856Z,957.94
2018-02-21T19:04:34.835Z,957.96
2018-02-21T19:05:34.813Z,957.92
2018-02-21T19:06:34.792Z,957.96
2018-02-21T19:07:34.772Z,957.99
2018-02-21T19:08:34.752Z,957.94
2018-02-21T19:09:34.729Z,957.97
2018-02-21T19:10:34.711Z,957.95
2018-02-21T19:11:34.687Z,957.95
2018-02-21T19:12:34.668Z,957.97
2018-02-21T19:13:34.650Z,957.96
2018-02-21T19:14:34.629Z,957.93
2018-02-21T19:15:34.605Z,957.91
2018-02-21T19:16:34.586Z,957.93
2018-02-21T19:17:34.564Z,957.9
2018-02-21T19:18:34.545Z,957.95
2018-02-21T19:19:34.557Z,957.89
2018-02-21T19:20:34.500Z,957.92
2018-02-21T19:21:34.480Z,957.89
2018-02-21T19:22:34.459Z,957.93
2018-02-21T19:23:34.438Z,957.92
2018-02-21T19:24:34.417Z,957.94
2018-02-21T19:25:34.396Z,957.93
2018-02-21T19:26:34.374Z,957.92
2018-02-21T19:27:34.353Z,957.94
2018-02-21T19:28:34.336Z,957.89
2018-02-21T19:29:34.310Z,957.9
2018-02-21T19:30:34.291Z,957.86
2018-02-21T19:31:34.270Z,957.89
2018-02-21T19:32:34.248Z,957.93
2018-02-21T19:33:34.227Z,957.92
2018-02-21T19:34:34.207Z,957.89
2018-02-21T19:35:34.185Z,957.89
2018-02-21T19:36:34.163Z,957.86
2018-02-21T19:37:34.146Z,957.88
2018-02-21T19:38:34.122Z,957.85
2018-02-21T19:39:34.100Z,957.82
2018-02-21T19:40:34.078Z,957.86
2018-02-21T19:41:34.058Z,957.85
2018-02-21T19:42:34.036Z,957.81
2018-02-21T19:43:34.015Z,957.83
2018-02-21T19:44:33.994Z,957.84
2018-02-21T19:45:33.971Z,957.87
2018-02-21T19:46:33.951Z,957.83
2018-02-21T19:47:33.967Z,957.81
2018-02-21T19:48:33.908Z,957.82
2018-02-21T19:49:33.887Z,957.79
2018-02-21T19:50:33.867Z,957.8
2018-02-21T19:51:33.843Z,957.81
2018-02-21T19:52:33.822Z,957.78
2018-02-21T19:53:33.803Z,957.83
2018-02-21T19:54:33.781Z,957.79
2018-02-21T19:55:33.758Z,957.8
2018-02-21T19:56:33.739Z,957.81
2018-02-21T19:57:33.717Z,957.82
2018-02-21T19:58:33.694Z,957.82
2018-02-21T19:59:33.675Z,957.78
2018-02-21T20:00:33.654Z,957.77
2018-02-21T20:01:33.631Z,957.77
2018-02-21T20:02:33.610Z,957.77
2018-02-21T20:03:33.589Z,957.74
2018-02-21T20:04:33.568Z,957.75
2018-02-21T20:05:33.549Z,957.75
2018-02-21T20:06:33.526Z,957.78
2018-02-21T20:07:33.539Z,957.72
2018-02-21T20:08:33.482Z,957.78
2018-02-21T20:09:33.459Z,957.77
2018-02-21T20:10:33.437Z,957.8
2018-02-21T20:11:33.416Z,957.79
2018-02-21T20:12:33.396Z,957.82
2018-02-21T20:13:33.393Z,957.83
2018-02-21T20:14:33.352Z,957.81
2018-02-21T20:15:33.332Z,957.78
2018-02-21T20:16:33.310Z,957.8
2018-02-21T20:17:33.286Z,957.83
2018-02-21T20:18:33.265Z,957.83
2018-02-21T20:19:33.245Z,957.83
2018-02-21T20:20:33.222Z,957.85
2018-02-21T20:21:33.200Z,957.87
2018-02-21T20:22:33.178Z,957.81
2018-02-21T20:23:33.157Z,957.81
2018-02-21T20:24:33.134Z,957.82
2018-02-21T20:25:33.117Z,957.83
2018-02-21T20:26:33.096Z,957.86
2018-02-21T20:27:33.072Z,957.85
2018-02-21T20:28:33.050Z,957.83
2018-02-21T20:29:33.028Z,957.87
2018-02-21T20:30:33.010Z,957.92
2018-02-21T20:31:32.983Z,957.88
2018-02-21T20:32:32.960Z,957.9
2018-02-21T20:33:32.941Z,957.9
2018-02-21T20:34:32.918Z,957.91
2018-02-21T20:35:32.900Z,957.93
2018-02-21T20:36:32.874Z,957.92
2018-02-21T20:37:32.853Z,957.89
2018-02-21T20:38:32.830Z,957.91
2018-02-21T20:39:32.810Z,957.91
2018-02-21T20:40:32.788Z,957.93
2018-02-21T20:41:32.765Z,957.88
2018-02-21T20:42:32.745Z,957.93
2018-02-21T20:43:32.740Z,957.93
2018-02-21T20:44:32.701Z,957.98
2018-02-21T20:45:32.679Z,957.91
2018-02-21T20:46:32.656Z,957.93
2018-02-21T20:47:32.636Z,957.96
2018-02-21T20:48:32.614Z,957.94
2018-02-21T20:49:32.590Z,957.97
2018-02-21T20:50:32.567Z,957.97
2018-02-21T20:51:32.547Z,958.03
2018-02-21T20:52:32.525Z,957.98
2018-02-21T20:53:32.504Z,958.01
2018-02-21T20:54:32.481Z,958
2018-02-21T20:55:32.460Z,957.99
2018-02-21T20:56:32.437Z,957.99
2018-02-21T20:57:32.415Z,957.99
2018-02-21T20:58:32.395Z,958.01
2018-02-21T20:59:32.373Z,958.03
2018-02-21T21:00:32.351Z,957.98
2018-02-21T21:01:32.328Z,958
2018-02-21T21:02:32.304Z,958.03
2018-02-21T21:03:32.287Z,958.01
2018-02-21T21:04:32.266Z,958.01
2018-02-21T21:05:32.241Z,958.01
2018-02-21T21:06:32.219Z,958.01
2018-02-21T21:07:32.196Z,957.99
2018-02-21T21:08:32.177Z,957.99
2018-02-21T21:09:32.152Z,958
2018-02-21T21:10:32.131Z,958
2018-02-21T21:11:32.108Z,958
2018-02-21T21:12:32.084Z,958.03
2018-02-21T21:13:32.064Z,958
2018-02-21T21:14:32.042Z,957.98
2018-02-21T21:15:32.019Z,957.97
2018-02-21T21:16:32.001Z,957.96
2018-02-21T21:17:31.977Z,957.96
2018-02-21T21:18:31.955Z,957.94
2018-02-21T21:19:31.931Z,957.98
2018-02-21T21:20:31.909Z,957.92
2018-02-21T21:21:31.888Z,957.98
2018-02-21T21:22:31.865Z,957.97
2018-02-21T21:23:31.844Z,957.97
2018-02-21T21:24:31.820Z,957.98
2018-02-21T21:25:31.799Z,958.02
2018-02-21T21:26:31.777Z,958
2018-02-21T21:27:31.754Z,958
2018-02-21T21:28:31.734Z,958.01
2018-02-21T21:29:31.711Z,958.06
2018-02-21T21:30:31.687Z,958.03
2018-02-21T21:31:31.669Z,958.03
2018-02-21T21:32:31.644Z,958.03
2018-02-21T21:33:31.623Z,957.94
2018-02-21T21:34:31.600Z,958.02
2018-02-21T21:35:31.579Z,957.96
2018-02-21T21:36:31.557Z,958.01
2018-02-21T21:37:31.533Z,957.98
2018-02-21T21:38:31.511Z,957.96
2018-02-21T21:39:31.490Z,957.98
2018-02-21T21:40:31.471Z,957.93
2018-02-21T21:41:31.443Z,957.93
2018-02-21T21:42:31.422Z,957.92
2018-02-21T21:43:31.401Z,957.94
2018-02-21T21:44:31.376Z,957.94
2018-02-21T21:45:31.354Z,957.88
2018-02-21T21:46:31.334Z,957.91
2018-02-21T21:47:31.311Z,957.91
2018-02-21T21:48:31.289Z,957.87
2018-02-21T21:49:32.869Z,957.89
2018-02-21T21:50:31.244Z,957.95
2018-02-21T21:51:31.224Z,957.9
2018-02-21T21:52:31.201Z,957.91
2018-02-21T21:53:31.178Z,957.93
2018-02-21T21:54:31.155Z,957.92
2018-02-21T21:55:31.132Z,957.93
2018-02-21T21:56:31.110Z,957.93
2018-02-21T21:57:31.089Z,957.92
2018-02-21T21:58:31.066Z,957.93
2018-02-21T21:59:31.043Z,957.93
2018-02-21T22:00:31.022Z,957.93
2018-02-21T22:01:30.998Z,957.93
2018-02-21T22:02:30.976Z,957.91
2018-02-21T22:03:30.955Z,957.97
2018-02-21T22:04:30.981Z,957.93
2018-02-21T22:05:30.910Z,957.93
2018-02-21T22:06:30.886Z,957.9
2018-02-21T22:07:30.862Z,957.94
2018-02-21T22:08:30.844Z,957.88
2018-02-21T22:09:30.820Z,957.92
2018-02-21T22:10:30.797Z,957.94
2018-02-21T22:11:30.774Z,957.92
2018-02-21T22:12:30.753Z,957.91
2018-02-21T22:13:30.730Z,957.92
2018-02-21T22:14:30.707Z,957.91
2018-02-21T22:15:30.684Z,957.94
2018-02-21T22:16:30.662Z,957.96
2018-02-21T22:17:30.639Z,957.95
2018-02-21T22:18:30.616Z,957.93
2018-02-21T22:19:30.595Z,957.91
2018-02-21T22:20:30.643Z,957.89
2018-02-21T22:21:30.549Z,957.93
2018-02-21T22:22:30.527Z,957.92
2018-02-21T22:23:30.504Z,957.9
2018-02-21T22:24:30.482Z,957.89
2018-02-21T22:25:30.460Z,957.87
2018-02-21T22:26:30.438Z,957.85
2018-02-21T22:27:30.414Z,957.89
2018-02-21T22:28:30.390Z,957.9
2018-02-21T22:29:30.368Z,957.89
2018-02-21T22:30:30.346Z,957.9
2018-02-21T22:31:30.325Z,957.89
2018-02-21T22:32:30.300Z,957.9
2018-02-21T22:33:30.278Z,957.89
2018-02-21T22:34:30.258Z,957.92
2018-02-21T22:35:30.232Z,957.89
2018-02-21T22:36:30.213Z,957.88
2018-02-21T22:37:30.189Z,957.89
2018-02-21T22:38:30.169Z,957.86
2018-02-21T22:39:30.140Z,957.88
2018-02-21T22:40:30.121Z,957.87
2018-02-21T22:41:30.098Z,957.91
2018-02-21T22:42:30.078Z,957.85
2018-02-21T22:43:30.052Z,957.92
2018-02-21T22:44:30.030Z,957.92
2018-02-21T22:45:30.008Z,957.93
2018-02-21T22:46:29.984Z,957.91
2018-02-21T22:47:29.960Z,957.94
2018-02-21T22:48:29.940Z,957.89
2018-02-21T22:49:29.917Z,957.84
2018-02-21T22:50:29.895Z,957.91
2018-02-21T22:51:29.902Z,957.91
2018-02-21T22:52:29.850Z,957.93
2018-02-21T22:53:29.826Z,957.92
2018-02-21T22:54:29.803Z,957.95
2018-02-21T22:55:29.781Z,957.89
2018-02-21T22:56:29.763Z,957.92
2018-02-21T22:57:29.742Z,957.92
2018-02-21T22:58:29.713Z,957.9
2018-02-21T22:59:29.689Z,957.91
2018-02-21T23:00:29.667Z,957.94
2018-02-21T23:01:29.643Z,957.9
2018-02-21T23:02:29.628Z,957.87
2018-02-21T23:03:29.598Z,957.89
2018-02-21T23:04:29.576Z,957.91
2018-02-21T23:05:29.552Z,957.9
2018-02-21T23:06:29.532Z,957.92
2018-02-21T23:07:29.508Z,957.88
2018-02-21T23:08:29.485Z,957.9
2018-02-21T23:09:29.464Z,957.91
2018-02-21T23:10:29.440Z,957.86
2018-02-21T23:11:29.416Z,957.89
2018-02-21T23:12:29.395Z,957.84
2018-02-21T23:13:29.372Z,957.84
2018-02-21T23:14:29.350Z,957.85
2018-02-21T23:15:29.327Z,957.82
2018-02-21T23:16:29.303Z,957.81
2018-02-21T23:17:29.280Z,957.84
2018-02-21T23:18:29.259Z,957.88
2018-02-21T23:19:29.234Z,957.85
2018-02-21T23:20:29.216Z,957.82
2018-02-21T23:21:29.189Z,957.81
2018-02-21T23:22:29.167Z,957.85
2018-02-21T23:23:29.143Z,957.89
2018-02-21T23:24:29.122Z,957.85
2018-02-21T23:25:29.100Z,957.83
2018-02-21T23:26:29.076Z,957.84
2018-02-21T23:27:29.052Z,957.83
2018-02-21T23:28:29.031Z,957.79
2018-02-21T23:29:29.008Z,957.83
2018-02-21T23:30:28.984Z,957.83
2018-02-21T23:31:28.959Z,957.83
2018-02-21T23:32:28.939Z,957.84
2018-02-21T23:33:28.916Z,957.78
2018-02-21T23:34:28.892Z,957.82
2018-02-21T23:35:28.868Z,957.75
2018-02-21T23:36:28.848Z,957.76
2018-02-21T23:37:28.826Z,957.77
2018-02-21T23:38:28.803Z,957.72
2018-02-21T23:39:28.779Z,957.74
2018-02-21T23:40:28.756Z,957.73
2018-02-21T23:41:28.733Z,957.71
2018-02-21T23:42:28.710Z,957.74
2018-02-21T23:43:28.688Z,957.7
2018-02-21T23:44:28.665Z,957.71
2018-02-21T23:45:28.643Z,957.65
2018-02-21T23:46:28.624Z,957.67
2018-02-21T23:47:28.595Z,957.68
2018-02-21T23:48:28.574Z,957.71
2018-02-21T23:49:28.550Z,957.64
2018-02-21T23:50:28.527Z,957.64
2018-02-21T23:51:28.506Z,957.67
2018-02-21T23:52:28.479Z,957.65
2018-02-21T23:53:28.459Z,957.62
2018-02-21T23:54:28.441Z,957.65
2018-02-21T23:55:28.413Z,957.64
2018-02-21T23:56:28.390Z,957.67
2018-02-21T23:57:28.367Z,957.64
2018-02-21T23:58:28.343Z,957.63
2018-02-21T23:59:28.321Z,957.65
